sensor_id;sensor_type;location;lat;lon;timestamp;temperature;humidity
7117;DHT22;3600;48.568;7.870;2024-03-02T00:00:51;6.10;99.90
7117;DHT22;3600;48.568;7.870;2024-03-02T00:03:19;6.00;99.90
7117;DHT22;3600;48.568;7.870;2024-03-02T00:05:50;6.00;99.90
7117;DHT22;3600;48.568;7.870;2024-03-02T00:08:23;5.90;99.90
7117;DHT22;3600;48.568;7.870;2024-03-02T00:10:58;5.90;99.90
7117;DHT22;3600;48.568;7.870;2024-03-02T00:13:26;5.80;99.90
7117;DHT22;3600;48.568;7.870;2024-03-02T00:15:54;5.80;99.90
7117;DHT22;3600;48.568;7.870;2024-03-02T00:18:35;5.90;99.90
7117;DHT22;3600;48.568;7.870;2024-03-02T00:21:03;5.90;99.90
7117;DHT22;3600;48.568;7.870;2024-03-02T00:23:30;5.80;99.90
7117;DHT22;3600;48.568;7.870;2024-03-02T00:25:58;5.80;99.90
7117;DHT22;3600;48.568;7.870;2024-03-02T00:28:31;5.70;99.90
7117;DHT22;3600;48.568;7.870;2024-03-02T00:31:10;5.70;99.90
7117;DHT22;3600;48.568;7.870;2024-03-02T00:33:48;5.70;99.90
7117;DHT22;3600;48.568;7.870;2024-03-02T00:36:26;5.70;99.90
7117;DHT22;3600;48.568;7.870;2024-03-02T00:38:54;5.60;99.90
7117;DHT22;3600;48.568;7.870;2024-03-02T00:41:29;5.70;99.90
7117;DHT22;3600;48.568;7.870;2024-03-02T00:43:57;5.60;99.90
7117;DHT22;3600;48.568;7.870;2024-03-02T00:46:25;5.60;99.90
7117;DHT22;3600;48.568;7.870;2024-03-02T00:48:59;5.60;99.90
7117;DHT22;3600;48.568;7.870;2024-03-02T00:51:29;5.60;99.90
7117;DHT22;3600;48.568;7.870;2024-03-02T00:54:01;5.60;99.90
7117;DHT22;3600;48.568;7.870;2024-03-02T00:56:31;5.60;99.90
7117;DHT22;3600;48.568;7.870;2024-03-02T00:58:58;5.60;99.90
7117;DHT22;3600;48.568;7.870;2024-03-02T01:01:25;5.70;99.90
7117;DHT22;3600;48.568;7.870;2024-03-02T01:03:53;5.70;99.90
7117;DHT22;3600;48.568;7.870;2024-03-02T01:06:20;5.70;99.90
7117;DHT22;3600;48.568;7.870;2024-03-02T01:08:47;5.70;99.90
7117;DHT22;3600;48.568;7.870;2024-03-02T01:11:18;5.60;99.90
7117;DHT22;3600;48.568;7.870;2024-03-02T01:13:45;5.50;99.90
7117;DHT22;3600;48.568;7.870;2024-03-02T01:16:13;5.50;99.90
7117;DHT22;3600;48.568;7.870;2024-03-02T01:18:42;5.60;99.90
7117;DHT22;3600;48.568;7.870;2024-03-02T01:21:09;5.60;99.90
7117;DHT22;3600;48.568;7.870;2024-03-02T01:23:36;5.60;99.90
7117;DHT22;3600;48.568;7.870;2024-03-02T01:26:03;5.50;99.90
7117;DHT22;3600;48.568;7.870;2024-03-02T01:28:30;5.60;99.90
7117;DHT22;3600;48.568;7.870;2024-03-02T01:30:57;5.50;99.90
7117;DHT22;3600;48.568;7.870;2024-03-02T01:33:24;5.40;99.90
7117;DHT22;3600;48.568;7.870;2024-03-02T01:35:51;5.40;99.90
7117;DHT22;3600;48.568;7.870;2024-03-02T01:38:18;5.40;99.90
7117;DHT22;3600;48.568;7.870;2024-03-02T01:40:44;5.40;99.90
7117;DHT22;3600;48.568;7.870;2024-03-02T01:43:11;5.30;99.90
7117;DHT22;3600;48.568;7.870;2024-03-02T01:45:38;5.30;99.90
7117;DHT22;3600;48.568;7.870;2024-03-02T01:48:06;5.30;99.90
7117;DHT22;3600;48.568;7.870;2024-03-02T01:50:34;5.30;99.90
7117;DHT22;3600;48.568;7.870;2024-03-02T01:53:02;5.30;99.90
7117;DHT22;3600;48.568;7.870;2024-03-02T01:55:31;5.30;99.90
7117;DHT22;3600;48.568;7.870;2024-03-02T01:57:59;5.20;99.90
7117;DHT22;3600;48.568;7.870;2024-03-02T02:00:26;5.30;99.90
7117;DHT22;3600;48.568;7.870;2024-03-02T02:02:54;5.30;99.90
7117;DHT22;3600;48.568;7.870;2024-03-02T02:05:21;5.30;99.90
7117;DHT22;3600;48.568;7.870;2024-03-02T02:07:49;5.20;99.90
7117;DHT22;3600;48.568;7.870;2024-03-02T02:10:16;5.20;99.90
7117;DHT22;3600;48.568;7.870;2024-03-02T02:12:43;5.10;99.90
7117;DHT22;3600;48.568;7.870;2024-03-02T02:15:24;5.10;99.90
7117;DHT22;3600;48.568;7.870;2024-03-02T02:17:51;5.00;99.90
7117;DHT22;3600;48.568;7.870;2024-03-02T02:20:18;5.00;99.90
7117;DHT22;3600;48.568;7.870;2024-03-02T02:23:03;5.00;99.90
7117;DHT22;3600;48.568;7.870;2024-03-02T02:25:31;5.00;99.90
7117;DHT22;3600;48.568;7.870;2024-03-02T02:27:58;5.00;99.90
7117;DHT22;3600;48.568;7.870;2024-03-02T02:30:28;4.90;99.90
7117;DHT22;3600;48.568;7.870;2024-03-02T02:32:55;4.90;99.90
7117;DHT22;3600;48.568;7.870;2024-03-02T02:35:22;4.90;99.90
7117;DHT22;3600;48.568;7.870;2024-03-02T02:37:55;4.90;99.90
7117;DHT22;3600;48.568;7.870;2024-03-02T02:40:22;4.80;99.90
7117;DHT22;3600;48.568;7.870;2024-03-02T02:42:49;4.80;99.90
7117;DHT22;3600;48.568;7.870;2024-03-02T02:45:16;4.80;99.90
7117;DHT22;3600;48.568;7.870;2024-03-02T02:47:44;4.80;99.90
7117;DHT22;3600;48.568;7.870;2024-03-02T02:50:12;4.80;99.90
7117;DHT22;3600;48.568;7.870;2024-03-02T02:52:40;4.90;99.90
7117;DHT22;3600;48.568;7.870;2024-03-02T02:55:09;4.80;99.90
7117;DHT22;3600;48.568;7.870;2024-03-02T02:57:38;4.80;99.90
7117;DHT22;3600;48.568;7.870;2024-03-02T03:00:14;4.80;99.90
7117;DHT22;3600;48.568;7.870;2024-03-02T03:02:52;4.80;99.90
7117;DHT22;3600;48.568;7.870;2024-03-02T03:05:19;4.80;99.90
7117;DHT22;3600;48.568;7.870;2024-03-02T03:07:46;4.80;99.90
7117;DHT22;3600;48.568;7.870;2024-03-02T03:10:16;4.80;99.90
7117;DHT22;3600;48.568;7.870;2024-03-02T03:12:43;4.80;99.90
7117;DHT22;3600;48.568;7.870;2024-03-02T03:15:11;4.80;99.90
7117;DHT22;3600;48.568;7.870;2024-03-02T03:17:39;4.80;99.90
7117;DHT22;3600;48.568;7.870;2024-03-02T03:20:07;4.90;99.90
7117;DHT22;3600;48.568;7.870;2024-03-02T03:22:37;4.80;99.90
7117;DHT22;3600;48.568;7.870;2024-03-02T03:25:05;4.80;99.90
7117;DHT22;3600;48.568;7.870;2024-03-02T03:27:32;4.70;99.90
7117;DHT22;3600;48.568;7.870;2024-03-02T03:29:59;4.70;99.90
7117;DHT22;3600;48.568;7.870;2024-03-02T03:32:26;4.70;99.90
7117;DHT22;3600;48.568;7.870;2024-03-02T03:34:53;4.70;99.90
7117;DHT22;3600;48.568;7.870;2024-03-02T03:37:20;4.80;99.90
7117;DHT22;3600;48.568;7.870;2024-03-02T03:39:47;4.80;99.90
7117;DHT22;3600;48.568;7.870;2024-03-02T03:42:14;4.70;99.90
7117;DHT22;3600;48.568;7.870;2024-03-02T03:44:41;4.70;99.90
7117;DHT22;3600;48.568;7.870;2024-03-02T03:47:08;4.70;99.90
7117;DHT22;3600;48.568;7.870;2024-03-02T03:49:35;4.60;99.90
7117;DHT22;3600;48.568;7.870;2024-03-02T03:52:02;4.60;99.90
7117;DHT22;3600;48.568;7.870;2024-03-02T03:54:31;4.60;99.90
7117;DHT22;3600;48.568;7.870;2024-03-02T03:56:58;4.60;99.90
7117;DHT22;3600;48.568;7.870;2024-03-02T03:59:25;4.60;99.90
7117;DHT22;3600;48.568;7.870;2024-03-02T04:01:51;4.60;99.90
7117;DHT22;3600;48.568;7.870;2024-03-02T04:04:19;4.60;99.90
7117;DHT22;3600;48.568;7.870;2024-03-02T04:06:46;4.60;99.90
7117;DHT22;3600;48.568;7.870;2024-03-02T04:09:13;4.60;99.90
7117;DHT22;3600;48.568;7.870;2024-03-02T04:11:40;4.50;99.90
7117;DHT22;3600;48.568;7.870;2024-03-02T04:14:07;4.60;99.90
7117;DHT22;3600;48.568;7.870;2024-03-02T04:16:34;4.50;99.90
7117;DHT22;3600;48.568;7.870;2024-03-02T04:19:01;4.50;99.90
7117;DHT22;3600;48.568;7.870;2024-03-02T04:21:28;4.50;99.90
7117;DHT22;3600;48.568;7.870;2024-03-02T04:23:55;4.50;99.90
7117;DHT22;3600;48.568;7.870;2024-03-02T04:26:26;4.50;99.90
7117;DHT22;3600;48.568;7.870;2024-03-02T04:28:53;4.60;99.90
7117;DHT22;3600;48.568;7.870;2024-03-02T04:31:21;4.70;99.90
7117;DHT22;3600;48.568;7.870;2024-03-02T04:33:48;4.70;99.90
7117;DHT22;3600;48.568;7.870;2024-03-02T04:36:15;4.50;99.90
7117;DHT22;3600;48.568;7.870;2024-03-02T04:38:42;4.50;99.90
7117;DHT22;3600;48.568;7.870;2024-03-02T04:41:09;4.50;99.90
7117;DHT22;3600;48.568;7.870;2024-03-02T04:43:36;4.50;99.90
7117;DHT22;3600;48.568;7.870;2024-03-02T04:46:03;4.60;99.90
7117;DHT22;3600;48.568;7.870;2024-03-02T04:48:31;4.70;99.90
7117;DHT22;3600;48.568;7.870;2024-03-02T04:50:58;4.70;99.90
7117;DHT22;3600;48.568;7.870;2024-03-02T04:53:24;4.60;99.90
7117;DHT22;3600;48.568;7.870;2024-03-02T04:55:52;4.60;99.90
7117;DHT22;3600;48.568;7.870;2024-03-02T04:58:54;4.50;99.90
7117;DHT22;3600;48.568;7.870;2024-03-02T05:01:21;4.50;99.90
7117;DHT22;3600;48.568;7.870;2024-03-02T05:03:48;4.50;99.90
7117;DHT22;3600;48.568;7.870;2024-03-02T05:06:15;4.50;99.90
7117;DHT22;3600;48.568;7.870;2024-03-02T05:08:42;4.60;99.90
7117;DHT22;3600;48.568;7.870;2024-03-02T05:11:11;4.60;99.90
7117;DHT22;3600;48.568;7.870;2024-03-02T05:13:57;4.60;99.90
7117;DHT22;3600;48.568;7.870;2024-03-02T05:16:23;4.50;99.90
7117;DHT22;3600;48.568;7.870;2024-03-02T05:18:50;4.60;99.90
7117;DHT22;3600;48.568;7.870;2024-03-02T05:21:17;4.60;99.90
7117;DHT22;3600;48.568;7.870;2024-03-02T05:23:44;4.40;99.90
7117;DHT22;3600;48.568;7.870;2024-03-02T05:26:11;4.40;99.90
7117;DHT22;3600;48.568;7.870;2024-03-02T05:28:41;4.40;99.90
7117;DHT22;3600;48.568;7.870;2024-03-02T05:31:10;4.30;99.90
7117;DHT22;3600;48.568;7.870;2024-03-02T05:33:38;4.30;99.90
7117;DHT22;3600;48.568;7.870;2024-03-02T05:36:05;4.30;99.90
7117;DHT22;3600;48.568;7.870;2024-03-02T05:38:35;4.30;99.90
7117;DHT22;3600;48.568;7.870;2024-03-02T05:41:02;4.20;99.90
7117;DHT22;3600;48.568;7.870;2024-03-02T05:43:29;4.30;99.90
7117;DHT22;3600;48.568;7.870;2024-03-02T05:45:55;4.20;99.90
7117;DHT22;3600;48.568;7.870;2024-03-02T05:48:22;4.20;99.90
7117;DHT22;3600;48.568;7.870;2024-03-02T05:50:49;4.20;99.90
7117;DHT22;3600;48.568;7.870;2024-03-02T05:53:16;4.20;99.90
7117;DHT22;3600;48.568;7.870;2024-03-02T05:55:44;4.20;99.90
7117;DHT22;3600;48.568;7.870;2024-03-02T05:58:12;4.30;99.90
7117;DHT22;3600;48.568;7.870;2024-03-02T06:00:59;4.20;99.90
7117;DHT22;3600;48.568;7.870;2024-03-02T06:03:26;4.20;99.90
7117;DHT22;3600;48.568;7.870;2024-03-02T06:05:55;4.30;99.90
7117;DHT22;3600;48.568;7.870;2024-03-02T06:08:22;4.30;99.90
7117;DHT22;3600;48.568;7.870;2024-03-02T06:10:49;4.30;99.90
7117;DHT22;3600;48.568;7.870;2024-03-02T06:13:16;4.40;99.90
7117;DHT22;3600;48.568;7.870;2024-03-02T06:15:43;4.40;99.90
7117;DHT22;3600;48.568;7.870;2024-03-02T06:18:10;4.50;99.90
7117;DHT22;3600;48.568;7.870;2024-03-02T06:20:37;4.60;99.90
7117;DHT22;3600;48.568;7.870;2024-03-02T06:23:04;4.60;99.90
7117;DHT22;3600;48.568;7.870;2024-03-02T06:25:32;4.70;99.90
7117;DHT22;3600;48.568;7.870;2024-03-02T06:27:59;4.70;99.90
7117;DHT22;3600;48.568;7.870;2024-03-02T06:30:26;4.70;99.90
7117;DHT22;3600;48.568;7.870;2024-03-02T06:32:53;4.70;99.90
7117;DHT22;3600;48.568;7.870;2024-03-02T06:35:20;4.70;99.90
7117;DHT22;3600;48.568;7.870;2024-03-02T06:37:46;4.70;99.90
7117;DHT22;3600;48.568;7.870;2024-03-02T06:40:13;4.70;99.90
7117;DHT22;3600;48.568;7.870;2024-03-02T06:42:41;4.70;99.90
7117;DHT22;3600;48.568;7.870;2024-03-02T06:45:08;4.80;99.90
7117;DHT22;3600;48.568;7.870;2024-03-02T06:47:35;4.80;99.90
7117;DHT22;3600;48.568;7.870;2024-03-02T06:50:02;4.90;99.90
7117;DHT22;3600;48.568;7.870;2024-03-02T06:52:29;5.00;99.90
7117;DHT22;3600;48.568;7.870;2024-03-02T06:54:57;5.00;99.90
7117;DHT22;3600;48.568;7.870;2024-03-02T06:57:24;4.90;99.90
7117;DHT22;3600;48.568;7.870;2024-03-02T06:59:51;4.90;99.90
7117;DHT22;3600;48.568;7.870;2024-03-02T07:02:21;5.00;99.90
7117;DHT22;3600;48.568;7.870;2024-03-02T07:04:58;5.00;99.90
7117;DHT22;3600;48.568;7.870;2024-03-02T07:07:31;5.00;99.90
7117;DHT22;3600;48.568;7.870;2024-03-02T07:10:09;5.00;99.90
7117;DHT22;3600;48.568;7.870;2024-03-02T07:12:37;5.10;99.90
7117;DHT22;3600;48.568;7.870;2024-03-02T07:15:04;5.10;99.90
7117;DHT22;3600;48.568;7.870;2024-03-02T07:17:32;5.10;99.90
7117;DHT22;3600;48.568;7.870;2024-03-02T07:19:59;5.20;99.90
7117;DHT22;3600;48.568;7.870;2024-03-02T07:22:26;5.30;99.90
7117;DHT22;3600;48.568;7.870;2024-03-02T07:24:53;5.30;99.90
7117;DHT22;3600;48.568;7.870;2024-03-02T07:27:20;5.30;99.90
7117;DHT22;3600;48.568;7.870;2024-03-02T07:29:48;5.40;99.90
7117;DHT22;3600;48.568;7.870;2024-03-02T07:32:15;5.50;99.90
7117;DHT22;3600;48.568;7.870;2024-03-02T07:34:42;5.50;99.90
7117;DHT22;3600;48.568;7.870;2024-03-02T07:37:09;5.50;99.90
7117;DHT22;3600;48.568;7.870;2024-03-02T07:39:36;5.50;99.90
7117;DHT22;3600;48.568;7.870;2024-03-02T07:42:04;5.50;99.90
7117;DHT22;3600;48.568;7.870;2024-03-02T07:44:31;5.60;99.90
7117;DHT22;3600;48.568;7.870;2024-03-02T07:47:01;5.60;99.90
7117;DHT22;3600;48.568;7.870;2024-03-02T07:49:28;5.60;99.90
7117;DHT22;3600;48.568;7.870;2024-03-02T07:51:55;5.70;99.90
7117;DHT22;3600;48.568;7.870;2024-03-02T07:54:22;5.70;99.90
7117;DHT22;3600;48.568;7.870;2024-03-02T07:56:49;5.70;99.90
7117;DHT22;3600;48.568;7.870;2024-03-02T07:59:16;5.70;99.90
7117;DHT22;3600;48.568;7.870;2024-03-02T08:01:43;5.80;99.90
7117;DHT22;3600;48.568;7.870;2024-03-02T08:04:46;5.80;99.90
7117;DHT22;3600;48.568;7.870;2024-03-02T08:07:13;5.90;99.90
7117;DHT22;3600;48.568;7.870;2024-03-02T08:09:40;5.90;99.90
7117;DHT22;3600;48.568;7.870;2024-03-02T08:12:07;5.90;99.90
7117;DHT22;3600;48.568;7.870;2024-03-02T08:14:35;5.90;99.90
7117;DHT22;3600;48.568;7.870;2024-03-02T08:17:02;6.00;99.90
7117;DHT22;3600;48.568;7.870;2024-03-02T08:19:29;6.10;99.90
7117;DHT22;3600;48.568;7.870;2024-03-02T08:21:56;6.10;99.90
7117;DHT22;3600;48.568;7.870;2024-03-02T08:24:23;6.20;99.90
7117;DHT22;3600;48.568;7.870;2024-03-02T08:26:50;6.20;99.90
7117;DHT22;3600;48.568;7.870;2024-03-02T08:29:17;6.30;99.90
7117;DHT22;3600;48.568;7.870;2024-03-02T08:31:43;6.30;99.90
7117;DHT22;3600;48.568;7.870;2024-03-02T08:34:10;6.30;99.90
7117;DHT22;3600;48.568;7.870;2024-03-02T08:36:37;6.40;99.90
7117;DHT22;3600;48.568;7.870;2024-03-02T08:39:05;6.40;99.90
7117;DHT22;3600;48.568;7.870;2024-03-02T08:41:34;6.50;99.90
7117;DHT22;3600;48.568;7.870;2024-03-02T08:44:01;6.60;99.90
7117;DHT22;3600;48.568;7.870;2024-03-02T08:46:28;6.60;99.90
7117;DHT22;3600;48.568;7.870;2024-03-02T08:48:55;6.70;99.90
7117;DHT22;3600;48.568;7.870;2024-03-02T08:51:22;6.70;99.90
7117;DHT22;3600;48.568;7.870;2024-03-02T08:53:49;6.80;99.90
7117;DHT22;3600;48.568;7.870;2024-03-02T08:56:19;6.80;99.90
7117;DHT22;3600;48.568;7.870;2024-03-02T08:58:50;7.00;99.90
7117;DHT22;3600;48.568;7.870;2024-03-02T09:01:22;7.10;99.90
7117;DHT22;3600;48.568;7.870;2024-03-02T09:03:52;7.20;99.90
7117;DHT22;3600;48.568;7.870;2024-03-02T09:06:21;7.20;99.90
7117;DHT22;3600;48.568;7.870;2024-03-02T09:08:48;7.30;99.90
7117;DHT22;3600;48.568;7.870;2024-03-02T09:11:16;7.40;99.90
7117;DHT22;3600;48.568;7.870;2024-03-02T09:13:43;7.40;99.90
7117;DHT22;3600;48.568;7.870;2024-03-02T09:16:11;7.50;99.90
7117;DHT22;3600;48.568;7.870;2024-03-02T09:18:40;7.50;99.90
7117;DHT22;3600;48.568;7.870;2024-03-02T09:21:07;7.60;99.90
7117;DHT22;3600;48.568;7.870;2024-03-02T09:23:34;7.70;99.90
7117;DHT22;3600;48.568;7.870;2024-03-02T09:26:01;7.80;99.90
7117;DHT22;3600;48.568;7.870;2024-03-02T09:28:28;7.80;99.90
7117;DHT22;3600;48.568;7.870;2024-03-02T09:30:55;7.90;99.90
7117;DHT22;3600;48.568;7.870;2024-03-02T09:33:26;7.90;99.90
7117;DHT22;3600;48.568;7.870;2024-03-02T09:35:53;8.00;99.90
7117;DHT22;3600;48.568;7.870;2024-03-02T09:38:21;8.10;99.90
7117;DHT22;3600;48.568;7.870;2024-03-02T09:40:51;8.20;99.90
7117;DHT22;3600;48.568;7.870;2024-03-02T09:43:18;8.20;99.90
7117;DHT22;3600;48.568;7.870;2024-03-02T09:45:45;8.20;99.90
7117;DHT22;3600;48.568;7.870;2024-03-02T09:48:12;8.20;99.90
7117;DHT22;3600;48.568;7.870;2024-03-02T09:50:39;8.30;99.90
7117;DHT22;3600;48.568;7.870;2024-03-02T09:53:07;8.30;99.90
7117;DHT22;3600;48.568;7.870;2024-03-02T09:55:35;8.40;99.90
7117;DHT22;3600;48.568;7.870;2024-03-02T09:58:03;8.60;99.90
7117;DHT22;3600;48.568;7.870;2024-03-02T10:00:30;8.70;99.90
7117;DHT22;3600;48.568;7.870;2024-03-02T10:02:57;8.70;99.90
7117;DHT22;3600;48.568;7.870;2024-03-02T10:05:26;9.00;99.90
7117;DHT22;3600;48.568;7.870;2024-03-02T10:08:02;9.00;99.90
7117;DHT22;3600;48.568;7.870;2024-03-02T10:10:39;9.00;99.90
7117;DHT22;3600;48.568;7.870;2024-03-02T10:13:07;9.10;99.90
7117;DHT22;3600;48.568;7.870;2024-03-02T10:15:36;9.20;99.90
7117;DHT22;3600;48.568;7.870;2024-03-02T10:18:26;9.20;99.90
7117;DHT22;3600;48.568;7.870;2024-03-02T10:20:55;9.30;99.90
7117;DHT22;3600;48.568;7.870;2024-03-02T10:23:22;9.30;99.90
7117;DHT22;3600;48.568;7.870;2024-03-02T10:25:49;9.40;99.90
7117;DHT22;3600;48.568;7.870;2024-03-02T10:28:23;9.50;99.90
7117;DHT22;3600;48.568;7.870;2024-03-02T10:30:51;9.70;99.90
7117;DHT22;3600;48.568;7.870;2024-03-02T10:33:20;9.70;99.90
7117;DHT22;3600;48.568;7.870;2024-03-02T10:35:49;10.00;99.90
7117;DHT22;3600;48.568;7.870;2024-03-02T10:38:17;10.30;99.90
7117;DHT22;3600;48.568;7.870;2024-03-02T10:40:47;10.20;99.90
7117;DHT22;3600;48.568;7.870;2024-03-02T10:43:16;10.10;99.90
7117;DHT22;3600;48.568;7.870;2024-03-02T10:45:45;10.30;99.90
7117;DHT22;3600;48.568;7.870;2024-03-02T10:48:13;10.30;99.90
7117;DHT22;3600;48.568;7.870;2024-03-02T10:50:40;10.40;99.90
7117;DHT22;3600;48.568;7.870;2024-03-02T10:53:07;10.50;99.90
7117;DHT22;3600;48.568;7.870;2024-03-02T10:55:34;10.60;99.90
7117;DHT22;3600;48.568;7.870;2024-03-02T10:58:04;10.70;99.90
7117;DHT22;3600;48.568;7.870;2024-03-02T11:00:38;10.80;99.90
7117;DHT22;3600;48.568;7.870;2024-03-02T11:03:06;10.90;99.90
7117;DHT22;3600;48.568;7.870;2024-03-02T11:05:42;11.00;99.90
7117;DHT22;3600;48.568;7.870;2024-03-02T11:08:14;11.20;99.90
7117;DHT22;3600;48.568;7.870;2024-03-02T11:10:50;11.30;99.90
7117;DHT22;3600;48.568;7.870;2024-03-02T11:13:27;11.50;99.90
7117;DHT22;3600;48.568;7.870;2024-03-02T11:16:08;11.70;99.90
7117;DHT22;3600;48.568;7.870;2024-03-02T11:18:37;11.90;99.90
7117;DHT22;3600;48.568;7.870;2024-03-02T11:21:08;12.00;99.90
7117;DHT22;3600;48.568;7.870;2024-03-02T11:23:35;12.00;99.90
7117;DHT22;3600;48.568;7.870;2024-03-02T11:28:46;12.30;99.90
7117;DHT22;3600;48.568;7.870;2024-03-02T11:31:13;12.50;99.90
7117;DHT22;3600;48.568;7.870;2024-03-02T11:33:40;12.60;99.90
7117;DHT22;3600;48.568;7.870;2024-03-02T11:36:08;12.70;99.90
7117;DHT22;3600;48.568;7.870;2024-03-02T11:38:38;12.80;99.90
7117;DHT22;3600;48.568;7.870;2024-03-02T11:41:09;13.00;99.90
7117;DHT22;3600;48.568;7.870;2024-03-02T11:43:39;13.20;99.90
7117;DHT22;3600;48.568;7.870;2024-03-02T11:46:07;13.30;99.90
7117;DHT22;3600;48.568;7.870;2024-03-02T11:48:35;13.50;99.90
7117;DHT22;3600;48.568;7.870;2024-03-02T11:51:05;13.50;99.90
7117;DHT22;3600;48.568;7.870;2024-03-02T11:53:33;13.70;99.90
7117;DHT22;3600;48.568;7.870;2024-03-02T11:56:02;13.70;99.90
7117;DHT22;3600;48.568;7.870;2024-03-02T11:58:30;13.90;99.90
7117;DHT22;3600;48.568;7.870;2024-03-02T12:00:57;14.10;99.90
7117;DHT22;3600;48.568;7.870;2024-03-02T12:03:25;14.10;99.90
7117;DHT22;3600;48.568;7.870;2024-03-02T12:05:53;14.20;99.90
7117;DHT22;3600;48.568;7.870;2024-03-02T12:08:22;14.30;99.90
7117;DHT22;3600;48.568;7.870;2024-03-02T12:11:02;14.10;99.90
7117;DHT22;3600;48.568;7.870;2024-03-02T12:13:30;14.20;99.90
7117;DHT22;3600;48.568;7.870;2024-03-02T12:15:58;14.20;99.90
7117;DHT22;3600;48.568;7.870;2024-03-02T12:18:26;14.00;99.90
7117;DHT22;3600;48.568;7.870;2024-03-02T12:20:53;14.10;99.90
7117;DHT22;3600;48.568;7.870;2024-03-02T12:23:25;14.10;99.90
7117;DHT22;3600;48.568;7.870;2024-03-02T12:25:52;14.20;99.90
7117;DHT22;3600;48.568;7.870;2024-03-02T12:28:20;14.30;99.90
7117;DHT22;3600;48.568;7.870;2024-03-02T12:30:47;14.40;99.90
7117;DHT22;3600;48.568;7.870;2024-03-02T12:33:14;14.60;99.90
7117;DHT22;3600;48.568;7.870;2024-03-02T12:35:44;14.50;99.90
7117;DHT22;3600;48.568;7.870;2024-03-02T12:38:11;14.40;99.90
7117;DHT22;3600;48.568;7.870;2024-03-02T12:40:38;14.40;99.90
7117;DHT22;3600;48.568;7.870;2024-03-02T12:43:06;14.40;99.90
7117;DHT22;3600;48.568;7.870;2024-03-02T12:45:34;14.50;99.90
7117;DHT22;3600;48.568;7.870;2024-03-02T12:48:02;14.60;99.90
7117;DHT22;3600;48.568;7.870;2024-03-02T12:50:30;14.70;99.90
7117;DHT22;3600;48.568;7.870;2024-03-02T12:52:58;14.80;99.90
7117;DHT22;3600;48.568;7.870;2024-03-02T12:55:25;14.80;99.90
7117;DHT22;3600;48.568;7.870;2024-03-02T12:57:54;15.00;99.90
7117;DHT22;3600;48.568;7.870;2024-03-02T13:00:24;15.10;99.90
7117;DHT22;3600;48.568;7.870;2024-03-02T13:02:51;15.30;99.90
7117;DHT22;3600;48.568;7.870;2024-03-02T13:05:19;15.50;99.00
7117;DHT22;3600;48.568;7.870;2024-03-02T13:07:47;15.60;98.80
7117;DHT22;3600;48.568;7.870;2024-03-02T13:10:16;15.70;99.20
7117;DHT22;3600;48.568;7.870;2024-03-02T13:12:43;15.70;99.40
7117;DHT22;3600;48.568;7.870;2024-03-02T13:15:13;15.80;99.60
7117;DHT22;3600;48.568;7.870;2024-03-02T13:17:45;16.00;99.90
7117;DHT22;3600;48.568;7.870;2024-03-02T13:20:15;16.20;98.60
7117;DHT22;3600;48.568;7.870;2024-03-02T13:22:46;16.20;98.60
7117;DHT22;3600;48.568;7.870;2024-03-02T13:25:13;16.40;98.80
7117;DHT22;3600;48.568;7.870;2024-03-02T13:27:41;16.40;98.00
7117;DHT22;3600;48.568;7.870;2024-03-02T13:30:13;16.40;98.00
7117;DHT22;3600;48.568;7.870;2024-03-02T13:32:41;16.40;96.80
7117;DHT22;3600;48.568;7.870;2024-03-02T13:35:08;16.20;98.00
7117;DHT22;3600;48.568;7.870;2024-03-02T13:37:39;16.40;97.70
7117;DHT22;3600;48.568;7.870;2024-03-02T13:40:09;16.30;97.40
7117;DHT22;3600;48.568;7.870;2024-03-02T13:42:40;16.50;96.90
7117;DHT22;3600;48.568;7.870;2024-03-02T13:45:08;16.60;97.10
7117;DHT22;3600;48.568;7.870;2024-03-02T13:47:35;16.80;96.80
7117;DHT22;3600;48.568;7.870;2024-03-02T13:50:02;17.00;96.90
7117;DHT22;3600;48.568;7.870;2024-03-02T13:52:31;17.00;96.40
7117;DHT22;3600;48.568;7.870;2024-03-02T13:54:58;17.10;96.60
7117;DHT22;3600;48.568;7.870;2024-03-02T13:57:26;17.20;95.80
7117;DHT22;3600;48.568;7.870;2024-03-02T13:59:55;17.30;96.70
7117;DHT22;3600;48.568;7.870;2024-03-02T14:02:22;17.50;96.20
7117;DHT22;3600;48.568;7.870;2024-03-02T14:04:49;17.40;95.80
7117;DHT22;3600;48.568;7.870;2024-03-02T14:07:17;17.40;95.60
7117;DHT22;3600;48.568;7.870;2024-03-02T14:09:44;17.50;95.70
7117;DHT22;3600;48.568;7.870;2024-03-02T14:12:14;17.50;95.50
7117;DHT22;3600;48.568;7.870;2024-03-02T14:14:41;17.40;95.20
7117;DHT22;3600;48.568;7.870;2024-03-02T14:17:08;17.30;95.90
7117;DHT22;3600;48.568;7.870;2024-03-02T14:19:42;17.40;95.10
7117;DHT22;3600;48.568;7.870;2024-03-02T14:22:09;17.30;94.50
7117;DHT22;3600;48.568;7.870;2024-03-02T14:24:53;17.10;94.70
7117;DHT22;3600;48.568;7.870;2024-03-02T14:27:46;17.00;94.90
7117;DHT22;3600;48.568;7.870;2024-03-02T14:30:50;16.70;95.00
7117;DHT22;3600;48.568;7.870;2024-03-02T14:33:30;16.60;95.20
7117;DHT22;3600;48.568;7.870;2024-03-02T14:36:15;16.50;96.00
7117;DHT22;3600;48.568;7.870;2024-03-02T14:38:54;16.40;95.70
7117;DHT22;3600;48.568;7.870;2024-03-02T14:41:31;16.30;95.90
7117;DHT22;3600;48.568;7.870;2024-03-02T14:44:16;16.30;95.90
7117;DHT22;3600;48.568;7.870;2024-03-02T14:46:49;16.20;95.90
7117;DHT22;3600;48.568;7.870;2024-03-02T14:49:26;16.10;95.80
7117;DHT22;3600;48.568;7.870;2024-03-02T14:52:09;16.00;95.90
7117;DHT22;3600;48.568;7.870;2024-03-02T14:54:37;16.00;96.00
7117;DHT22;3600;48.568;7.870;2024-03-02T14:57:05;15.90;96.00
7117;DHT22;3600;48.568;7.870;2024-03-02T14:59:33;15.90;95.80
7117;DHT22;3600;48.568;7.870;2024-03-02T15:02:00;15.80;95.80
7117;DHT22;3600;48.568;7.870;2024-03-02T15:04:30;15.80;95.50
7117;DHT22;3600;48.568;7.870;2024-03-02T15:06:57;15.80;96.20
7117;DHT22;3600;48.568;7.870;2024-03-02T15:09:24;15.60;96.40
7117;DHT22;3600;48.568;7.870;2024-03-02T15:11:52;15.50;96.10
7117;DHT22;3600;48.568;7.870;2024-03-02T15:14:21;15.50;96.00
7117;DHT22;3600;48.568;7.870;2024-03-02T15:16:48;15.30;97.00
7117;DHT22;3600;48.568;7.870;2024-03-02T15:19:16;15.30;97.20
7117;DHT22;3600;48.568;7.870;2024-03-02T15:21:43;15.30;96.70
7117;DHT22;3600;48.568;7.870;2024-03-02T15:24:10;15.30;96.20
7117;DHT22;3600;48.568;7.870;2024-03-02T15:26:39;15.20;96.50
7117;DHT22;3600;48.568;7.870;2024-03-02T15:29:06;15.20;96.20
7117;DHT22;3600;48.568;7.870;2024-03-02T15:31:34;15.10;96.90
7117;DHT22;3600;48.568;7.870;2024-03-02T15:34:01;15.00;97.30
7117;DHT22;3600;48.568;7.870;2024-03-02T15:36:35;14.90;97.70
7117;DHT22;3600;48.568;7.870;2024-03-02T15:39:15;14.80;95.40
7117;DHT22;3600;48.568;7.870;2024-03-02T15:41:48;14.80;96.80
7117;DHT22;3600;48.568;7.870;2024-03-02T15:44:26;14.70;96.40
7117;DHT22;3600;48.568;7.870;2024-03-02T15:47:13;14.60;96.00
7117;DHT22;3600;48.568;7.870;2024-03-02T15:49:57;14.50;96.30
7117;DHT22;3600;48.568;7.870;2024-03-02T15:52:35;14.50;96.30
7117;DHT22;3600;48.568;7.870;2024-03-02T15:55:10;14.40;97.10
7117;DHT22;3600;48.568;7.870;2024-03-02T15:57:45;14.40;97.20
7117;DHT22;3600;48.568;7.870;2024-03-02T16:04:40;14.40;97.10
7117;DHT22;3600;48.568;7.870;2024-03-02T16:08:28;14.40;97.60
7117;DHT22;3600;48.568;7.870;2024-03-02T16:12:01;14.40;97.40
7117;DHT22;3600;48.568;7.870;2024-03-02T16:15:22;14.40;97.60
7117;DHT22;3600;48.568;7.870;2024-03-02T16:29:00;14.20;98.50
7117;DHT22;3600;48.568;7.870;2024-03-02T16:31:59;14.20;98.00
7117;DHT22;3600;48.568;7.870;2024-03-02T16:38:25;14.00;99.20
7117;DHT22;3600;48.568;7.870;2024-03-02T16:52:42;13.90;99.50
7117;DHT22;3600;48.568;7.870;2024-03-02T16:59:40;13.80;99.70
7117;DHT22;3600;48.568;7.870;2024-03-02T17:02:10;13.70;99.60
7117;DHT22;3600;48.568;7.870;2024-03-02T17:04:37;13.70;99.60
7117;DHT22;3600;48.568;7.870;2024-03-02T17:07:05;13.60;99.90